createdAt,value
2022-09-27T00:01:13.720Z,11.89
2022-09-27T00:03:42.351Z,11.89
2022-09-27T00:06:14.642Z,11.90
2022-09-27T00:08:43.530Z,11.88
2022-09-27T00:11:18.795Z,11.89
2022-09-27T00:13:47.393Z,11.88
2022-09-27T00:16:15.922Z,11.88
2022-09-27T00:18:44.314Z,11.78
2022-09-27T00:21:14.585Z,11.76
2022-09-27T00:23:43.212Z,11.80
2022-09-27T00:26:14.957Z,12.05
2022-09-27T00:28:43.694Z,12.05
2022-09-27T00:31:18.149Z,12.20
2022-09-27T00:33:46.412Z,12.21
2022-09-27T00:36:14.694Z,12.18
2022-09-27T00:38:43.355Z,12.16
2022-09-27T00:41:16.818Z,12.24
2022-09-27T00:43:48.718Z,12.42
2022-09-27T00:46:22.251Z,12.15
2022-09-27T00:49:01.551Z,12.02
2022-09-27T00:51:30.258Z,11.92
2022-09-27T00:53:59.441Z,11.92
2022-09-27T00:56:31.052Z,11.86
2022-09-27T00:59:02.763Z,11.88
2022-09-27T01:01:31.748Z,11.93
2022-09-27T01:04:03.318Z,11.95
2022-09-27T01:06:32.076Z,11.93
2022-09-27T01:09:00.533Z,11.90
2022-09-27T01:11:37.907Z,11.90
2022-09-27T01:14:14.731Z,11.93
2022-09-27T01:16:46.645Z,11.91
2022-09-27T01:19:25.012Z,12.07
2022-09-27T01:21:58.051Z,11.99
2022-09-27T01:24:52.433Z,11.97
2022-09-27T01:27:57.273Z,11.94
2022-09-27T01:30:29.292Z,11.92
2022-09-27T01:33:10.494Z,11.86
2022-09-27T01:35:45.628Z,11.79
2022-09-27T01:38:19.044Z,11.77
2022-09-27T01:40:52.582Z,11.83
2022-09-27T01:43:44.241Z,11.86
2022-09-27T01:46:17.113Z,11.83
2022-09-27T01:49:09.952Z,11.84
2022-09-27T01:51:41.283Z,11.92
2022-09-27T01:54:13.775Z,11.95
2022-09-27T01:57:01.797Z,12.02
2022-09-27T01:59:39.708Z,12.10
2022-09-27T02:02:24.783Z,12.20
2022-09-27T02:05:28.653Z,12.25
2022-09-27T02:08:04.079Z,12.22
2022-09-27T02:10:35.360Z,12.30
2022-09-27T02:13:22.447Z,12.05
2022-09-27T02:16:00.099Z,12.05
2022-09-27T02:18:48.799Z,12.06
2022-09-27T02:21:18.177Z,11.98
2022-09-27T02:23:49.144Z,11.98
2022-09-27T02:26:20.179Z,11.93
2022-09-27T02:28:52.994Z,12.08
2022-09-27T02:31:28.533Z,11.88
2022-09-27T02:34:02.627Z,11.87
2022-09-27T02:36:31.409Z,11.93
2022-09-27T02:39:00.330Z,11.95
2022-09-27T02:41:30.086Z,11.93
2022-09-27T02:44:01.313Z,11.97
2022-09-27T02:46:50.758Z,11.95
2022-09-27T02:49:31.204Z,11.97
2022-09-27T02:52:35.658Z,11.99
2022-09-27T02:55:10.488Z,11.99
2022-09-27T02:58:06.335Z,12.06
2022-09-27T03:00:50.475Z,11.93
2022-09-27T03:03:45.100Z,11.93
2022-09-27T03:06:16.298Z,11.92
2022-09-27T03:08:45.301Z,11.92
2022-09-27T03:11:13.583Z,11.91
2022-09-27T03:14:06.889Z,11.90
2022-09-27T03:16:30.140Z,11.89
2022-09-27T03:19:24.687Z,11.95
2022-09-27T03:22:14.334Z,11.88
2022-09-27T03:24:43.065Z,11.91
2022-09-27T03:27:11.439Z,11.92
2022-09-27T03:29:39.698Z,11.94
2022-09-27T03:32:10.820Z,11.93
2022-09-27T03:35:08.854Z,11.97
2022-09-27T03:37:38.735Z,12.03
2022-09-27T03:40:08.686Z,12.05
2022-09-27T03:42:37.075Z,12.02
2022-09-27T03:45:05.927Z,11.95
2022-09-27T03:47:34.160Z,12.00
2022-09-27T03:50:02.603Z,12.02
2022-09-27T03:52:30.854Z,12.01
2022-09-27T03:55:02.358Z,12.10
2022-09-27T03:57:32.181Z,12.10
2022-09-27T04:00:00.724Z,12.10
2022-09-27T04:02:41.205Z,12.04
2022-09-27T04:05:30.482Z,12.17
2022-09-27T04:08:03.312Z,12.09
2022-09-27T04:10:36.895Z,11.99
2022-09-27T04:13:05.974Z,11.96
2022-09-27T04:15:40.458Z,11.93
2022-09-27T04:18:41.020Z,11.90
2022-09-27T04:21:38.410Z,11.94
2022-09-27T04:24:08.365Z,11.91
2022-09-27T04:26:40.027Z,12.00
2022-09-27T04:29:12.750Z,11.90
2022-09-27T04:31:48.070Z,11.83
2022-09-27T04:35:03.011Z,11.85
2022-09-27T04:37:31.521Z,11.87
2022-09-27T04:40:03.516Z,11.93
2022-09-27T04:42:34.175Z,11.85
2022-09-27T04:45:02.391Z,11.83
2022-09-27T04:47:30.932Z,11.72
2022-09-27T04:49:59.253Z,11.77
2022-09-27T04:52:28.090Z,11.84
2022-09-27T04:54:56.328Z,11.82
2022-09-27T04:57:24.876Z,11.85
2022-09-27T04:59:54.523Z,11.79
2022-09-27T05:02:22.833Z,11.85
2022-09-27T05:05:17.646Z,11.90
2022-09-27T05:07:46.177Z,11.85
2022-09-27T05:10:26.312Z,11.93
2022-09-27T05:12:54.726Z,11.93
2022-09-27T05:15:25.638Z,11.89
2022-09-27T05:18:12.244Z,11.80
2022-09-27T05:20:40.534Z,11.77
2022-09-27T05:23:18.485Z,11.82
2022-09-27T05:25:46.797Z,11.88
2022-09-27T05:28:15.235Z,11.71
2022-09-27T05:30:45.790Z,11.72
2022-09-27T05:33:20.195Z,11.68
2022-09-27T05:35:53.378Z,11.71
2022-09-27T05:38:24.265Z,11.68
2022-09-27T05:40:55.798Z,11.65
2022-09-27T05:43:25.522Z,11.57
2022-09-27T05:45:56.053Z,11.68
2022-09-27T05:48:24.898Z,11.67
2022-09-27T05:51:02.423Z,11.62
2022-09-27T05:53:33.072Z,11.70
2022-09-27T05:56:04.583Z,11.76
2022-09-27T05:59:00.112Z,11.85
2022-09-27T06:01:37.330Z,11.86
2022-09-27T06:04:25.692Z,11.81
2022-09-27T06:07:13.844Z,11.82
2022-09-27T06:09:44.332Z,11.80
2022-09-27T06:12:14.431Z,11.77
2022-09-27T06:14:42.838Z,11.81
2022-09-27T06:17:17.444Z,11.79
2022-09-27T06:19:47.771Z,11.89
2022-09-27T06:22:16.886Z,11.95
2022-09-27T06:25:04.063Z,12.02
2022-09-27T06:27:35.553Z,12.01
2022-09-27T06:30:14.873Z,12.05
2022-09-27T06:32:59.245Z,12.16
2022-09-27T06:35:33.359Z,12.15
2022-09-27T06:38:05.021Z,12.26
2022-09-27T06:40:33.961Z,12.21
2022-09-27T06:43:33.207Z,12.18
2022-09-27T06:46:15.992Z,12.21
2022-09-27T06:49:05.252Z,12.34
2022-09-27T06:51:34.283Z,12.35
2022-09-27T06:54:02.572Z,12.20
2022-09-27T06:56:30.872Z,12.13
2022-09-27T06:59:17.344Z,12.17
2022-09-27T07:01:46.404Z,12.26
2022-09-27T07:04:18.926Z,12.33
2022-09-27T07:06:59.250Z,12.42
2022-09-27T07:09:32.326Z,12.52
2022-09-27T07:12:00.826Z,12.58
2022-09-27T07:14:30.346Z,12.65
2022-09-27T07:16:58.631Z,12.54
2022-09-27T07:19:30.481Z,12.51
2022-09-27T07:21:58.854Z,12.57
2022-09-27T07:24:27.122Z,12.67
2022-09-27T07:26:55.598Z,12.73
2022-09-27T07:29:24.788Z,12.89
2022-09-27T07:31:55.018Z,12.93
2022-09-27T07:34:24.052Z,12.88
2022-09-27T07:36:55.196Z,12.73
2022-09-27T07:39:23.558Z,12.77
2022-09-27T07:41:52.419Z,12.67
2022-09-27T07:44:20.726Z,12.68
2022-09-27T07:47:08.230Z,12.67
2022-09-27T07:50:04.816Z,12.62
2022-09-27T07:52:51.281Z,12.60
2022-09-27T07:55:52.036Z,12.54
2022-09-27T07:58:22.988Z,12.62
2022-09-27T08:00:54.609Z,12.59
2022-09-27T08:03:23.118Z,12.63
2022-09-27T08:05:51.708Z,12.38
2022-09-27T08:08:22.463Z,12.49
2022-09-27T08:10:52.328Z,12.66
2022-09-27T08:13:21.540Z,12.73
2022-09-27T08:15:54.007Z,12.86
2022-09-27T08:18:25.208Z,12.74
2022-09-27T08:20:58.138Z,12.84
2022-09-27T08:23:55.130Z,12.92
2022-09-27T08:26:30.699Z,13.17
2022-09-27T08:29:10.888Z,13.41
2022-09-27T08:31:44.219Z,13.34
2022-09-27T08:34:13.130Z,13.40
2022-09-27T08:36:41.428Z,13.70
2022-09-27T08:39:11.385Z,13.72
2022-09-27T08:41:49.471Z,13.85
2022-09-27T08:44:24.747Z,13.80
2022-09-27T08:47:16.797Z,14.11
2022-09-27T08:49:50.739Z,13.71
2022-09-27T08:52:22.013Z,13.98
2022-09-27T08:54:52.205Z,14.11
2022-09-27T08:57:20.987Z,14.13
2022-09-27T08:59:54.555Z,14.47
2022-09-27T09:02:24.776Z,14.43
2022-09-27T09:04:55.999Z,14.43
2022-09-27T09:07:40.593Z,14.30
2022-09-27T09:10:38.056Z,14.16
2022-09-27T09:13:11.852Z,14.04
2022-09-27T09:15:56.628Z,13.70
2022-09-27T09:18:39.804Z,13.62
2022-09-27T09:21:23.390Z,13.68
2022-09-27T09:24:16.516Z,13.62
2022-09-27T09:26:49.924Z,13.61
2022-09-27T09:29:28.153Z,13.39
2022-09-27T09:32:00.176Z,13.52
2022-09-27T09:34:32.956Z,13.47
2022-09-27T09:37:04.179Z,13.58
2022-09-27T09:39:36.215Z,13.52
2022-09-27T09:42:10.012Z,13.56
2022-09-27T09:44:45.243Z,13.61
2022-09-27T09:47:20.330Z,13.74
2022-09-27T09:49:53.302Z,13.65
2022-09-27T09:52:25.009Z,13.64
2022-09-27T09:54:56.266Z,13.65
2022-09-27T09:57:28.907Z,13.79
2022-09-27T09:59:59.898Z,13.93
2022-09-27T10:02:33.572Z,13.92
2022-09-27T10:05:12.407Z,13.76
2022-09-27T10:07:41.531Z,13.71
2022-09-27T10:10:14.111Z,13.63
2022-09-27T10:12:50.052Z,13.83
2022-09-27T10:15:22.613Z,13.60
2022-09-27T10:17:54.074Z,13.18
2022-09-27T10:20:30.225Z,13.15
2022-09-27T10:23:05.398Z,12.96
2022-09-27T10:25:53.343Z,12.65
2022-09-27T10:28:39.375Z,12.36
2022-09-27T10:31:09.631Z,12.11
2022-09-27T10:33:53.773Z,12.01
2022-09-27T10:36:26.516Z,12.00
2022-09-27T10:38:56.077Z,12.20
2022-09-27T10:41:36.761Z,12.04
2022-09-27T10:44:27.377Z,12.04
2022-09-27T10:47:23.888Z,12.03
2022-09-27T10:50:06.890Z,12.09
2022-09-27T10:53:05.474Z,12.08
2022-09-27T10:55:35.935Z,11.93
2022-09-27T10:58:05.218Z,12.01
2022-09-27T11:00:36.629Z,12.16
2022-09-27T11:03:08.947Z,12.29
2022-09-27T11:05:39.979Z,12.33
2022-09-27T11:08:24.424Z,12.47
2022-09-27T11:11:06.692Z,12.56
2022-09-27T11:13:37.977Z,12.63
2022-09-27T11:16:22.594Z,12.61
2022-09-27T11:19:03.003Z,12.60
2022-09-27T11:21:36.926Z,12.75
2022-09-27T11:24:17.684Z,12.80
2022-09-27T11:26:54.060Z,12.75
2022-09-27T11:29:28.153Z,12.80
2022-09-27T11:32:46.474Z,12.80
2022-09-27T11:35:47.284Z,12.91
2022-09-27T11:38:40.888Z,12.98
2022-09-27T11:41:22.948Z,13.12
2022-09-27T11:44:24.365Z,13.11
2022-09-27T11:47:00.801Z,13.09
2022-09-27T11:49:57.581Z,13.09
2022-09-27T11:52:37.822Z,13.15
2022-09-27T11:55:16.688Z,13.24
2022-09-27T11:57:49.997Z,13.35
2022-09-27T12:00:21.726Z,13.35
2022-09-27T12:03:22.291Z,13.45
2022-09-27T12:06:07.268Z,13.53
2022-09-27T12:08:54.642Z,13.40
2022-09-27T12:11:26.673Z,13.30
2022-09-27T12:13:59.110Z,13.32
2022-09-27T12:16:28.617Z,13.33
2022-09-27T12:18:57.588Z,13.27
2022-09-27T12:21:47.559Z,13.21
2022-09-27T12:24:21.284Z,13.21
2022-09-27T12:27:11.853Z,13.11
2022-09-27T12:29:41.952Z,13.22
2022-09-27T12:32:15.293Z,13.01
2022-09-27T12:34:47.171Z,12.97
2022-09-27T12:37:20.988Z,12.98
2022-09-27T12:39:53.241Z,12.96
2022-09-27T12:42:27.467Z,13.14
2022-09-27T12:45:01.113Z,13.20
2022-09-27T12:47:38.196Z,13.20
2022-09-27T12:50:17.085Z,13.23
2022-09-27T12:52:51.130Z,13.24
2022-09-27T12:55:44.142Z,13.43
2022-09-27T12:58:49.600Z,13.23
2022-09-27T13:01:29.161Z,13.24
2022-09-27T13:04:15.881Z,13.27
2022-09-27T13:06:59.482Z,13.21
2022-09-27T13:09:51.356Z,13.23
2022-09-27T13:12:22.127Z,13.38
2022-09-27T13:14:58.831Z,13.50
2022-09-27T13:17:50.110Z,13.53
2022-09-27T13:20:44.415Z,13.57
2022-09-27T13:23:51.550Z,13.56
2022-09-27T13:26:44.529Z,13.71
2022-09-27T13:29:29.534Z,13.54
2022-09-27T13:32:23.688Z,13.58
2022-09-27T13:35:21.789Z,13.84
2022-09-27T13:37:59.559Z,13.91
2022-09-27T13:40:45.500Z,14.09
2022-09-27T13:43:41.661Z,14.00
2022-09-27T13:46:30.977Z,14.15
2022-09-27T13:49:04.840Z,14.29
2022-09-27T13:52:20.870Z,14.47
2022-09-27T13:54:59.188Z,14.55
2022-09-27T13:57:43.414Z,14.50
2022-09-27T14:00:19.895Z,14.58
2022-09-27T14:03:07.355Z,14.52
2022-09-27T14:05:40.846Z,14.50
2022-09-27T14:08:21.369Z,14.37
2022-09-27T14:10:50.763Z,14.37
2022-09-27T14:13:21.498Z,14.39
2022-09-27T14:16:03.073Z,14.49
2022-09-27T14:18:31.673Z,14.56
2022-09-27T14:21:13.269Z,14.67
2022-09-27T14:24:24.900Z,14.68
2022-09-27T14:27:11.564Z,14.53
2022-09-27T14:29:44.927Z,14.59
2022-09-27T14:32:18.859Z,14.31
2022-09-27T14:35:06.368Z,14.03
2022-09-27T14:37:36.453Z,13.82
2022-09-27T14:40:20.449Z,13.84
2022-09-27T14:42:49.583Z,13.74
2022-09-27T14:45:22.925Z,13.68
2022-09-27T14:47:52.851Z,13.45
2022-09-27T14:50:23.876Z,13.34
2022-09-27T14:52:55.839Z,13.22
2022-09-27T14:55:25.688Z,13.12
2022-09-27T14:57:55.573Z,13.03
2022-09-27T15:00:26.604Z,13.10
2022-09-27T15:02:59.125Z,13.27
2022-09-27T15:05:29.646Z,13.15
2022-09-27T15:07:59.565Z,13.10
2022-09-27T15:10:31.472Z,13.09
2022-09-27T15:13:01.580Z,12.97
2022-09-27T15:15:32.797Z,13.07
2022-09-27T15:18:03.630Z,13.03
2022-09-27T15:20:35.131Z,13.01
2022-09-27T15:23:06.587Z,13.03
2022-09-27T15:25:36.772Z,13.03
2022-09-27T15:28:06.922Z,13.00
2022-09-27T15:30:36.870Z,13.01
2022-09-27T15:33:07.420Z,12.92
2022-09-27T15:35:36.821Z,12.85
2022-09-27T15:38:32.740Z,12.88
2022-09-27T15:41:05.564Z,12.95
2022-09-27T15:43:37.161Z,12.91
2022-09-27T15:46:09.753Z,12.88
2022-09-27T15:48:42.208Z,12.83
2022-09-27T15:51:40.819Z,12.71
2022-09-27T15:54:09.675Z,12.72
2022-09-27T15:56:40.479Z,12.69
2022-09-27T15:59:14.406Z,12.69
2022-09-27T16:01:43.118Z,12.62
2022-09-27T16:04:13.024Z,12.66
2022-09-27T16:06:42.899Z,12.72
2022-09-27T16:09:17.861Z,12.91
2022-09-27T16:11:46.752Z,12.97
2022-09-27T16:14:18.441Z,13.11
2022-09-27T16:16:50.256Z,13.02
2022-09-27T16:19:23.395Z,12.83
2022-09-27T16:21:52.540Z,12.75
2022-09-27T16:24:21.470Z,12.54
2022-09-27T16:26:51.020Z,12.40
2022-09-27T16:29:21.911Z,12.34
2022-09-27T16:31:53.892Z,12.39
2022-09-27T16:34:26.588Z,12.38
2022-09-27T16:36:55.786Z,12.51
2022-09-27T16:39:24.334Z,12.57
2022-09-27T16:41:54.803Z,12.33
2022-09-27T16:44:23.274Z,12.22
2022-09-27T16:46:51.793Z,12.15
2022-09-27T16:49:37.417Z,12.14
2022-09-27T16:52:07.233Z,12.15
2022-09-27T16:54:35.604Z,12.13
2022-09-27T16:57:05.078Z,12.26
2022-09-27T16:59:33.583Z,12.29
2022-09-27T17:02:02.217Z,12.35
2022-09-27T17:04:30.725Z,12.28
2022-09-27T17:06:59.552Z,12.13
2022-09-27T17:09:29.323Z,12.09
2022-09-27T17:11:57.706Z,12.05
2022-09-27T17:14:27.256Z,12.18
2022-09-27T17:16:55.511Z,12.36
2022-09-27T17:19:24.058Z,12.20
2022-09-27T17:21:53.008Z,12.17
2022-09-27T17:24:21.700Z,12.13
2022-09-27T17:26:52.505Z,12.06
2022-09-27T17:29:21.220Z,11.96
2022-09-27T17:31:50.452Z,11.91
2022-09-27T17:34:19.158Z,11.83
2022-09-27T17:36:50.464Z,11.77
2022-09-27T17:39:22.565Z,11.72
2022-09-27T17:41:52.723Z,11.73
2022-09-27T17:44:22.050Z,11.79
2022-09-27T17:47:11.613Z,11.88
2022-09-27T17:49:58.714Z,11.87
2022-09-27T17:52:28.935Z,11.84
2022-09-27T17:54:58.621Z,11.79
2022-09-27T17:57:28.541Z,11.80
2022-09-27T17:59:58.010Z,11.73
2022-09-27T18:02:26.771Z,11.71
2022-09-27T18:04:55.239Z,11.74
2022-09-27T18:07:23.715Z,11.67
2022-09-27T18:09:52.534Z,11.63
2022-09-27T18:12:22.310Z,11.57
2022-09-27T18:14:52.106Z,11.53
2022-09-27T18:17:21.649Z,11.51
2022-09-27T18:19:50.023Z,11.51
2022-09-27T18:22:18.487Z,11.57
2022-09-27T18:24:46.929Z,11.54
2022-09-27T18:27:18.570Z,11.51
2022-09-27T18:29:47.238Z,11.55
2022-09-27T18:32:16.973Z,11.60
2022-09-27T18:34:45.427Z,11.71
2022-09-27T18:37:13.838Z,11.65
2022-09-27T18:39:42.383Z,11.70
2022-09-27T18:42:10.915Z,11.70
2022-09-27T18:44:39.686Z,11.78
2022-09-27T18:47:08.184Z,11.84
2022-09-27T18:49:38.292Z,12.00
2022-09-27T18:52:07.650Z,11.95
2022-09-27T18:54:38.784Z,11.84
2022-09-27T18:57:07.646Z,11.60
2022-09-27T18:59:36.461Z,11.50
2022-09-27T19:02:04.948Z,11.44
2022-09-27T19:04:33.913Z,11.40
2022-09-27T19:07:04.237Z,11.22
2022-09-27T19:09:32.709Z,11.14
2022-09-27T19:12:01.332Z,11.09
2022-09-27T19:14:30.200Z,11.06
2022-09-27T19:16:58.666Z,10.98
2022-09-27T19:19:27.326Z,10.89
2022-09-27T19:21:56.501Z,10.76
2022-09-27T19:24:26.868Z,10.73
2022-09-27T19:26:58.708Z,10.78
2022-09-27T19:29:27.651Z,10.73
2022-09-27T19:31:56.309Z,10.61
2022-09-27T19:34:24.713Z,10.58
2022-09-27T19:36:53.117Z,10.57
2022-09-27T19:39:22.616Z,10.62
2022-09-27T19:41:52.432Z,10.65
2022-09-27T19:44:20.715Z,10.55
2022-09-27T19:46:49.355Z,10.47
2022-09-27T19:49:19.231Z,10.43
2022-09-27T19:51:47.999Z,10.48
2022-09-27T19:54:16.554Z,10.46
2022-09-27T19:56:44.892Z,10.30
2022-09-27T19:59:14.830Z,10.22
2022-09-27T20:01:44.235Z,10.48
2022-09-27T20:04:13.039Z,10.64
2022-09-27T20:06:41.645Z,10.37
2022-09-27T20:09:10.933Z,10.38
2022-09-27T20:11:39.223Z,10.62
2022-09-27T20:14:08.173Z,10.90
2022-09-27T20:16:41.399Z,10.73
2022-09-27T20:19:11.478Z,10.59
2022-09-27T20:21:39.892Z,10.74
2022-09-27T20:24:08.100Z,10.76
2022-09-27T20:26:38.390Z,10.59
2022-09-27T20:29:07.931Z,10.36
2022-09-27T20:31:56.976Z,9.94
2022-09-27T20:34:29.651Z,9.89
2022-09-27T20:36:57.811Z,9.89
2022-09-27T20:39:26.030Z,10.23
2022-09-27T20:41:54.310Z,10.34
2022-09-27T20:44:22.834Z,10.38
2022-09-27T20:46:52.463Z,10.03
2022-09-27T20:49:20.904Z,10.32
2022-09-27T20:51:49.732Z,9.90
2022-09-27T20:54:18.480Z,9.92
2022-09-27T20:56:48.034Z,9.98
2022-09-27T20:59:18.381Z,9.73
2022-09-27T21:01:49.103Z,9.67
2022-09-27T21:04:20.117Z,9.42
2022-09-27T21:06:49.066Z,9.18
2022-09-27T21:09:19.171Z,9.13
2022-09-27T21:11:48.147Z,9.03
2022-09-27T21:14:16.486Z,8.91
2022-09-27T21:16:44.914Z,8.79
2022-09-27T21:19:13.546Z,8.69
2022-09-27T21:21:43.516Z,8.55
2022-09-27T21:24:11.945Z,8.54
2022-09-27T21:26:40.179Z,8.45
2022-09-27T21:29:10.393Z,8.39
2022-09-27T21:31:39.006Z,8.22
2022-09-27T21:34:07.687Z,8.18
2022-09-27T21:36:37.110Z,8.23
2022-09-27T21:39:08.630Z,8.58
2022-09-27T21:41:37.488Z,8.78
2022-09-27T21:44:06.597Z,9.07
2022-09-27T21:46:35.560Z,8.96
2022-09-27T21:49:03.813Z,8.78
2022-09-27T21:51:33.749Z,8.38
2022-09-27T21:54:03.153Z,8.17
2022-09-27T21:56:34.525Z,8.14
2022-09-27T21:59:03.248Z,8.17
2022-09-27T22:01:33.200Z,7.95
2022-09-27T22:04:03.041Z,7.92
2022-09-27T22:06:33.291Z,7.95
2022-09-27T22:09:03.104Z,7.96
2022-09-27T22:11:34.387Z,8.06
2022-09-27T22:14:02.671Z,8.13
2022-09-27T22:16:31.230Z,8.49
2022-09-27T22:19:00.120Z,8.38
2022-09-27T22:21:29.723Z,8.36
2022-09-27T22:24:00.990Z,8.32
2022-09-27T22:26:34.432Z,8.13
2022-09-27T22:29:02.692Z,8.05
2022-09-27T22:31:30.961Z,8.07
2022-09-27T22:34:00.777Z,8.44
2022-09-27T22:36:29.667Z,8.47
2022-09-27T22:38:58.283Z,8.66
2022-09-27T22:41:27.015Z,8.55
2022-09-27T22:43:57.423Z,8.80
2022-09-27T22:46:26.062Z,8.61
2022-09-27T22:48:55.829Z,8.70
2022-09-27T22:51:24.122Z,8.57
2022-09-27T22:53:52.598Z,8.39
2022-09-27T22:56:21.885Z,8.20
2022-09-27T22:58:50.877Z,8.41
2022-09-27T23:01:21.874Z,8.54
2022-09-27T23:03:51.752Z,8.39
2022-09-27T23:06:21.289Z,8.35
2022-09-27T23:08:50.385Z,8.21
2022-09-27T23:11:19.695Z,7.84
2022-09-27T23:13:49.053Z,7.74
2022-09-27T23:16:19.486Z,7.86
2022-09-27T23:18:50.249Z,7.89
2022-09-27T23:21:18.477Z,8.20
2022-09-27T23:23:47.628Z,8.45
2022-09-27T23:26:17.422Z,8.39
2022-09-27T23:28:45.876Z,8.72
2022-09-27T23:31:15.504Z,8.67
2022-09-27T23:33:45.003Z,8.76
2022-09-27T23:36:16.337Z,8.59
2022-09-27T23:38:45.963Z,8.60
2022-09-27T23:41:15.257Z,8.18
2022-09-27T23:43:44.135Z,8.11
2022-09-27T23:46:13.282Z,8.16
2022-09-27T23:48:41.858Z,7.97
2022-09-27T23:51:12.046Z,7.89
2022-09-27T23:53:41.768Z,7.96
2022-09-27T23:56:12.394Z,8.04
2022-09-27T23:58:42.228Z,8.29
